sensor_id;sensor_type;location;lat;lon;timestamp;temperature;humidity
7129;DHT22;3606;52.930;8.644;2024-03-29T00:00:37;7.20;99.90
7129;DHT22;3606;52.930;8.644;2024-03-29T00:03:03;7.20;99.90
7129;DHT22;3606;52.930;8.644;2024-03-29T00:05:29;7.20;99.90
7129;DHT22;3606;52.930;8.644;2024-03-29T00:07:54;7.20;99.90
7129;DHT22;3606;52.930;8.644;2024-03-29T00:10:20;7.10;99.90
7129;DHT22;3606;52.930;8.644;2024-03-29T00:12:45;7.00;99.90
7129;DHT22;3606;52.930;8.644;2024-03-29T00:15:11;7.00;99.90
7129;DHT22;3606;52.930;8.644;2024-03-29T00:17:37;7.00;99.90
7129;DHT22;3606;52.930;8.644;2024-03-29T00:20:02;6.90;99.90
7129;DHT22;3606;52.930;8.644;2024-03-29T00:22:29;6.90;99.90
7129;DHT22;3606;52.930;8.644;2024-03-29T00:24:55;6.90;99.90
7129;DHT22;3606;52.930;8.644;2024-03-29T00:27:20;6.90;99.90
7129;DHT22;3606;52.930;8.644;2024-03-29T00:29:50;7.00;99.90
7129;DHT22;3606;52.930;8.644;2024-03-29T00:32:19;6.90;99.90
7129;DHT22;3606;52.930;8.644;2024-03-29T00:34:44;6.70;99.90
7129;DHT22;3606;52.930;8.644;2024-03-29T00:37:11;6.80;99.90
7129;DHT22;3606;52.930;8.644;2024-03-29T00:39:36;6.90;99.90
7129;DHT22;3606;52.930;8.644;2024-03-29T00:42:03;6.90;99.90
7129;DHT22;3606;52.930;8.644;2024-03-29T00:44:29;6.90;99.90
7129;DHT22;3606;52.930;8.644;2024-03-29T00:46:55;6.80;99.90
7129;DHT22;3606;52.930;8.644;2024-03-29T00:49:21;6.90;99.90
7129;DHT22;3606;52.930;8.644;2024-03-29T00:51:46;6.80;99.90
7129;DHT22;3606;52.930;8.644;2024-03-29T00:54:12;6.80;99.90
7129;DHT22;3606;52.930;8.644;2024-03-29T00:56:37;6.90;99.90
7129;DHT22;3606;52.930;8.644;2024-03-29T00:59:03;6.80;99.90
7129;DHT22;3606;52.930;8.644;2024-03-29T01:01:28;6.80;99.90
7129;DHT22;3606;52.930;8.644;2024-03-29T01:03:54;6.80;99.90
7129;DHT22;3606;52.930;8.644;2024-03-29T01:06:20;6.70;99.90
7129;DHT22;3606;52.930;8.644;2024-03-29T01:08:45;6.70;99.90
7129;DHT22;3606;52.930;8.644;2024-03-29T01:11:11;6.60;99.90
7129;DHT22;3606;52.930;8.644;2024-03-29T01:13:36;6.70;99.90
7129;DHT22;3606;52.930;8.644;2024-03-29T01:16:02;6.70;99.90
7129;DHT22;3606;52.930;8.644;2024-03-29T01:18:28;6.70;99.90
7129;DHT22;3606;52.930;8.644;2024-03-29T01:20:53;6.80;99.90
7129;DHT22;3606;52.930;8.644;2024-03-29T01:23:19;6.80;99.90
7129;DHT22;3606;52.930;8.644;2024-03-29T01:25:44;6.80;99.90
7129;DHT22;3606;52.930;8.644;2024-03-29T01:28:10;6.90;99.90
7129;DHT22;3606;52.930;8.644;2024-03-29T01:30:36;6.90;99.90
7129;DHT22;3606;52.930;8.644;2024-03-29T01:33:01;6.90;99.90
7129;DHT22;3606;52.930;8.644;2024-03-29T01:35:27;6.90;99.90
7129;DHT22;3606;52.930;8.644;2024-03-29T01:37:52;6.90;99.90
7129;DHT22;3606;52.930;8.644;2024-03-29T01:40:18;6.90;99.90
7129;DHT22;3606;52.930;8.644;2024-03-29T01:42:43;6.80;99.90
7129;DHT22;3606;52.930;8.644;2024-03-29T01:45:09;6.80;99.90
7129;DHT22;3606;52.930;8.644;2024-03-29T01:47:35;6.70;99.90
7129;DHT22;3606;52.930;8.644;2024-03-29T01:50:01;6.70;99.90
7129;DHT22;3606;52.930;8.644;2024-03-29T01:52:27;6.70;99.90
7129;DHT22;3606;52.930;8.644;2024-03-29T01:54:54;6.70;99.90
7129;DHT22;3606;52.930;8.644;2024-03-29T01:57:20;6.70;99.90
7129;DHT22;3606;52.930;8.644;2024-03-29T01:59:46;6.80;99.90
7129;DHT22;3606;52.930;8.644;2024-03-29T02:02:12;6.70;99.90
7129;DHT22;3606;52.930;8.644;2024-03-29T02:04:38;6.70;99.90
7129;DHT22;3606;52.930;8.644;2024-03-29T02:07:04;6.70;99.90
7129;DHT22;3606;52.930;8.644;2024-03-29T02:09:31;6.70;99.90
7129;DHT22;3606;52.930;8.644;2024-03-29T02:11:56;6.70;99.90
7129;DHT22;3606;52.930;8.644;2024-03-29T02:14:22;6.70;99.90
7129;DHT22;3606;52.930;8.644;2024-03-29T02:16:47;6.70;99.90
7129;DHT22;3606;52.930;8.644;2024-03-29T02:19:14;6.70;99.90
7129;DHT22;3606;52.930;8.644;2024-03-29T02:21:43;6.70;99.90
7129;DHT22;3606;52.930;8.644;2024-03-29T02:24:11;6.70;99.90
7129;DHT22;3606;52.930;8.644;2024-03-29T02:26:39;6.80;99.90
7129;DHT22;3606;52.930;8.644;2024-03-29T02:29:08;6.80;99.90
7129;DHT22;3606;52.930;8.644;2024-03-29T02:31:35;6.80;99.90
7129;DHT22;3606;52.930;8.644;2024-03-29T02:34:00;6.70;99.90
7129;DHT22;3606;52.930;8.644;2024-03-29T02:36:26;6.70;99.90
7129;DHT22;3606;52.930;8.644;2024-03-29T02:38:51;6.70;99.90
7129;DHT22;3606;52.930;8.644;2024-03-29T02:41:18;6.60;99.90
7129;DHT22;3606;52.930;8.644;2024-03-29T02:43:43;6.60;99.90
7129;DHT22;3606;52.930;8.644;2024-03-29T02:46:09;6.60;99.90
7129;DHT22;3606;52.930;8.644;2024-03-29T02:48:34;6.60;99.90
7129;DHT22;3606;52.930;8.644;2024-03-29T02:51:00;6.70;99.90
7129;DHT22;3606;52.930;8.644;2024-03-29T02:53:26;6.60;99.90
7129;DHT22;3606;52.930;8.644;2024-03-29T02:55:51;6.70;99.90
7129;DHT22;3606;52.930;8.644;2024-03-29T02:58:17;6.70;99.90
7129;DHT22;3606;52.930;8.644;2024-03-29T03:00:43;6.70;99.90
7129;DHT22;3606;52.930;8.644;2024-03-29T03:03:08;6.70;99.90
7129;DHT22;3606;52.930;8.644;2024-03-29T03:05:34;6.70;99.90
7129;DHT22;3606;52.930;8.644;2024-03-29T03:07:59;6.80;99.90
7129;DHT22;3606;52.930;8.644;2024-03-29T03:10:47;6.70;99.90
7129;DHT22;3606;52.930;8.644;2024-03-29T03:13:22;6.60;99.90
7129;DHT22;3606;52.930;8.644;2024-03-29T03:15:48;6.60;99.90
7129;DHT22;3606;52.930;8.644;2024-03-29T03:18:13;6.60;99.90
7129;DHT22;3606;52.930;8.644;2024-03-29T03:20:39;6.50;99.90
7129;DHT22;3606;52.930;8.644;2024-03-29T03:23:05;6.50;99.90
7129;DHT22;3606;52.930;8.644;2024-03-29T03:25:30;6.60;99.90
7129;DHT22;3606;52.930;8.644;2024-03-29T03:27:56;6.60;99.90
7129;DHT22;3606;52.930;8.644;2024-03-29T03:30:22;6.60;99.90
7129;DHT22;3606;52.930;8.644;2024-03-29T03:32:47;6.60;99.90
7129;DHT22;3606;52.930;8.644;2024-03-29T03:35:13;6.80;99.90
7129;DHT22;3606;52.930;8.644;2024-03-29T03:37:39;6.80;99.90
7129;DHT22;3606;52.930;8.644;2024-03-29T03:40:05;6.80;99.90
7129;DHT22;3606;52.930;8.644;2024-03-29T03:42:32;6.80;99.90
7129;DHT22;3606;52.930;8.644;2024-03-29T03:44:57;6.80;99.90
7129;DHT22;3606;52.930;8.644;2024-03-29T03:47:23;6.80;99.90
7129;DHT22;3606;52.930;8.644;2024-03-29T03:49:49;6.80;99.90
7129;DHT22;3606;52.930;8.644;2024-03-29T03:52:14;6.80;99.90
7129;DHT22;3606;52.930;8.644;2024-03-29T03:54:40;6.80;99.90
7129;DHT22;3606;52.930;8.644;2024-03-29T03:57:05;6.90;99.90
7129;DHT22;3606;52.930;8.644;2024-03-29T03:59:31;6.90;99.90
7129;DHT22;3606;52.930;8.644;2024-03-29T04:01:57;7.00;99.90
7129;DHT22;3606;52.930;8.644;2024-03-29T04:04:23;7.10;99.90
7129;DHT22;3606;52.930;8.644;2024-03-29T04:06:49;7.10;99.90
7129;DHT22;3606;52.930;8.644;2024-03-29T04:09:15;7.10;99.90
7129;DHT22;3606;52.930;8.644;2024-03-29T04:11:43;7.20;99.90
7129;DHT22;3606;52.930;8.644;2024-03-29T04:14:09;7.10;99.90
7129;DHT22;3606;52.930;8.644;2024-03-29T04:16:35;7.20;99.90
7129;DHT22;3606;52.930;8.644;2024-03-29T04:19:00;7.20;99.90
7129;DHT22;3606;52.930;8.644;2024-03-29T04:21:26;7.30;99.90
7129;DHT22;3606;52.930;8.644;2024-03-29T04:23:52;7.30;99.90
7129;DHT22;3606;52.930;8.644;2024-03-29T04:26:19;7.40;99.90
7129;DHT22;3606;52.930;8.644;2024-03-29T04:28:44;7.40;99.90
7129;DHT22;3606;52.930;8.644;2024-03-29T04:31:10;7.40;99.90
7129;DHT22;3606;52.930;8.644;2024-03-29T04:33:36;7.40;99.90
7129;DHT22;3606;52.930;8.644;2024-03-29T04:36:03;7.40;99.90
7129;DHT22;3606;52.930;8.644;2024-03-29T04:38:30;7.40;99.90
7129;DHT22;3606;52.930;8.644;2024-03-29T04:40:57;7.50;99.90
7129;DHT22;3606;52.930;8.644;2024-03-29T04:43:25;7.50;99.90
7129;DHT22;3606;52.930;8.644;2024-03-29T04:46:00;7.50;99.90
7129;DHT22;3606;52.930;8.644;2024-03-29T04:48:26;7.50;99.90
7129;DHT22;3606;52.930;8.644;2024-03-29T04:50:52;7.50;99.90
7129;DHT22;3606;52.930;8.644;2024-03-29T04:53:17;7.60;99.90
7129;DHT22;3606;52.930;8.644;2024-03-29T04:55:43;7.60;99.90
7129;DHT22;3606;52.930;8.644;2024-03-29T04:58:10;7.70;99.90
7129;DHT22;3606;52.930;8.644;2024-03-29T05:00:36;7.70;99.90
7129;DHT22;3606;52.930;8.644;2024-03-29T05:03:01;7.70;99.90
7129;DHT22;3606;52.930;8.644;2024-03-29T05:05:27;7.70;99.90
7129;DHT22;3606;52.930;8.644;2024-03-29T05:07:52;7.70;99.90
7129;DHT22;3606;52.930;8.644;2024-03-29T05:10:18;7.80;99.90
7129;DHT22;3606;52.930;8.644;2024-03-29T05:12:44;7.80;99.90
7129;DHT22;3606;52.930;8.644;2024-03-29T05:15:10;7.80;99.90
7129;DHT22;3606;52.930;8.644;2024-03-29T05:17:36;7.80;99.90
7129;DHT22;3606;52.930;8.644;2024-03-29T05:20:02;7.80;99.90
7129;DHT22;3606;52.930;8.644;2024-03-29T05:22:29;7.80;99.90
7129;DHT22;3606;52.930;8.644;2024-03-29T05:24:55;7.90;99.90
7129;DHT22;3606;52.930;8.644;2024-03-29T05:27:21;7.90;99.90
7129;DHT22;3606;52.930;8.644;2024-03-29T05:29:46;7.90;99.90
7129;DHT22;3606;52.930;8.644;2024-03-29T05:32:12;7.90;99.90
7129;DHT22;3606;52.930;8.644;2024-03-29T05:34:38;7.90;99.90
7129;DHT22;3606;52.930;8.644;2024-03-29T05:37:03;7.90;99.90
7129;DHT22;3606;52.930;8.644;2024-03-29T05:39:30;8.00;99.90
7129;DHT22;3606;52.930;8.644;2024-03-29T05:41:56;8.00;99.90
7129;DHT22;3606;52.930;8.644;2024-03-29T05:44:21;8.10;99.90
7129;DHT22;3606;52.930;8.644;2024-03-29T05:46:47;8.10;99.90
7129;DHT22;3606;52.930;8.644;2024-03-29T05:49:12;8.00;99.90
7129;DHT22;3606;52.930;8.644;2024-03-29T05:51:38;7.90;99.90
7129;DHT22;3606;52.930;8.644;2024-03-29T05:54:04;7.90;99.90
7129;DHT22;3606;52.930;8.644;2024-03-29T05:56:30;7.90;99.90
7129;DHT22;3606;52.930;8.644;2024-03-29T05:58:55;7.90;99.90
7129;DHT22;3606;52.930;8.644;2024-03-29T06:01:21;8.00;99.90
7129;DHT22;3606;52.930;8.644;2024-03-29T06:03:49;8.10;99.90
7129;DHT22;3606;52.930;8.644;2024-03-29T06:06:17;8.00;99.90
7129;DHT22;3606;52.930;8.644;2024-03-29T06:08:46;7.90;99.90
7129;DHT22;3606;52.930;8.644;2024-03-29T06:11:11;7.90;99.90
7129;DHT22;3606;52.930;8.644;2024-03-29T06:13:37;7.90;99.90
7129;DHT22;3606;52.930;8.644;2024-03-29T06:16:19;7.80;99.90
7129;DHT22;3606;52.930;8.644;2024-03-29T06:19:03;7.60;99.90
7129;DHT22;3606;52.930;8.644;2024-03-29T06:21:29;7.60;99.90
7129;DHT22;3606;52.930;8.644;2024-03-29T06:23:58;7.50;99.90
7129;DHT22;3606;52.930;8.644;2024-03-29T06:26:23;7.40;99.90
7129;DHT22;3606;52.930;8.644;2024-03-29T06:28:49;7.40;99.90
7129;DHT22;3606;52.930;8.644;2024-03-29T06:31:15;7.40;99.90
7129;DHT22;3606;52.930;8.644;2024-03-29T06:33:41;7.30;99.90
7129;DHT22;3606;52.930;8.644;2024-03-29T06:36:06;7.30;99.90
7129;DHT22;3606;52.930;8.644;2024-03-29T06:38:32;7.20;99.90
7129;DHT22;3606;52.930;8.644;2024-03-29T06:40:58;7.20;99.90
7129;DHT22;3606;52.930;8.644;2024-03-29T06:43:23;7.30;99.90
7129;DHT22;3606;52.930;8.644;2024-03-29T06:45:49;7.30;99.90
7129;DHT22;3606;52.930;8.644;2024-03-29T06:48:14;7.30;99.90
7129;DHT22;3606;52.930;8.644;2024-03-29T06:50:41;7.30;99.90
7129;DHT22;3606;52.930;8.644;2024-03-29T06:53:06;7.20;99.90
7129;DHT22;3606;52.930;8.644;2024-03-29T06:55:34;7.30;99.90
7129;DHT22;3606;52.930;8.644;2024-03-29T06:58:02;7.20;99.90
7129;DHT22;3606;52.930;8.644;2024-03-29T07:00:28;7.20;99.90
7129;DHT22;3606;52.930;8.644;2024-03-29T07:02:53;7.30;99.90
7129;DHT22;3606;52.930;8.644;2024-03-29T07:05:19;7.30;99.90
7129;DHT22;3606;52.930;8.644;2024-03-29T07:07:44;7.30;99.90
7129;DHT22;3606;52.930;8.644;2024-03-29T07:10:12;7.40;99.90
7129;DHT22;3606;52.930;8.644;2024-03-29T07:12:38;7.40;99.90
7129;DHT22;3606;52.930;8.644;2024-03-29T07:15:04;7.40;99.90
7129;DHT22;3606;52.930;8.644;2024-03-29T07:17:30;7.30;99.90
7129;DHT22;3606;52.930;8.644;2024-03-29T07:19:55;7.40;99.90
7129;DHT22;3606;52.930;8.644;2024-03-29T07:22:21;7.40;99.90
7129;DHT22;3606;52.930;8.644;2024-03-29T07:24:47;7.40;99.90
7129;DHT22;3606;52.930;8.644;2024-03-29T07:27:12;7.50;99.90
7129;DHT22;3606;52.930;8.644;2024-03-29T07:29:40;7.50;99.90
7129;DHT22;3606;52.930;8.644;2024-03-29T07:32:07;7.50;99.90
7129;DHT22;3606;52.930;8.644;2024-03-29T07:34:33;7.60;99.90
7129;DHT22;3606;52.930;8.644;2024-03-29T07:36:59;7.70;99.90
7129;DHT22;3606;52.930;8.644;2024-03-29T07:39:24;7.90;99.90
7129;DHT22;3606;52.930;8.644;2024-03-29T07:41:50;8.10;99.90
7129;DHT22;3606;52.930;8.644;2024-03-29T07:44:15;8.20;99.90
7129;DHT22;3606;52.930;8.644;2024-03-29T07:46:41;8.20;99.90
7129;DHT22;3606;52.930;8.644;2024-03-29T07:49:07;8.40;99.90
7129;DHT22;3606;52.930;8.644;2024-03-29T07:51:34;8.60;99.90
7129;DHT22;3606;52.930;8.644;2024-03-29T07:54:00;8.70;99.90
7129;DHT22;3606;52.930;8.644;2024-03-29T07:56:25;8.70;99.90
7129;DHT22;3606;52.930;8.644;2024-03-29T07:58:52;8.90;99.90
7129;DHT22;3606;52.930;8.644;2024-03-29T08:01:22;9.10;99.90
7129;DHT22;3606;52.930;8.644;2024-03-29T08:03:50;9.30;99.90
7129;DHT22;3606;52.930;8.644;2024-03-29T08:06:16;9.60;99.90
7129;DHT22;3606;52.930;8.644;2024-03-29T08:08:44;9.80;99.90
7129;DHT22;3606;52.930;8.644;2024-03-29T08:11:10;9.80;99.90
7129;DHT22;3606;52.930;8.644;2024-03-29T08:13:37;9.70;99.90
7129;DHT22;3606;52.930;8.644;2024-03-29T08:16:03;9.60;99.90
7129;DHT22;3606;52.930;8.644;2024-03-29T08:18:31;9.60;99.90
7129;DHT22;3606;52.930;8.644;2024-03-29T08:20:56;9.70;99.90
7129;DHT22;3606;52.930;8.644;2024-03-29T08:23:23;9.70;99.90
7129;DHT22;3606;52.930;8.644;2024-03-29T08:25:49;9.80;99.90
7129;DHT22;3606;52.930;8.644;2024-03-29T08:28:19;9.90;99.90
7129;DHT22;3606;52.930;8.644;2024-03-29T08:30:45;10.10;1.00
7129;DHT22;3606;52.930;8.644;2024-03-29T08:33:11;10.30;99.90
7129;DHT22;3606;52.930;8.644;2024-03-29T08:35:37;10.50;99.90
7129;DHT22;3606;52.930;8.644;2024-03-29T08:38:04;10.60;99.90
7129;DHT22;3606;52.930;8.644;2024-03-29T08:40:30;11.00;99.90
7129;DHT22;3606;52.930;8.644;2024-03-29T08:42:57;11.20;99.90
7129;DHT22;3606;52.930;8.644;2024-03-29T08:45:23;11.10;99.90
7129;DHT22;3606;52.930;8.644;2024-03-29T08:47:49;10.80;61.30
7129;DHT22;3606;52.930;8.644;2024-03-29T08:50:15;10.40;99.90
7129;DHT22;3606;52.930;8.644;2024-03-29T08:52:40;10.30;99.90
7129;DHT22;3606;52.930;8.644;2024-03-29T08:55:07;10.10;99.90
7129;DHT22;3606;52.930;8.644;2024-03-29T08:57:33;10.00;99.90
7129;DHT22;3606;52.930;8.644;2024-03-29T08:59:59;9.80;1.00
7129;DHT22;3606;52.930;8.644;2024-03-29T09:02:24;9.70;99.90
7129;DHT22;3606;52.930;8.644;2024-03-29T09:04:50;9.60;99.90
7129;DHT22;3606;52.930;8.644;2024-03-29T09:07:15;9.60;99.90
7129;DHT22;3606;52.930;8.644;2024-03-29T09:09:41;9.60;99.90
7129;DHT22;3606;52.930;8.644;2024-03-29T09:12:10;9.60;99.90
7129;DHT22;3606;52.930;8.644;2024-03-29T09:14:36;9.50;99.90
7129;DHT22;3606;52.930;8.644;2024-03-29T09:17:02;9.50;99.90
7129;DHT22;3606;52.930;8.644;2024-03-29T09:19:28;9.50;99.90
7129;DHT22;3606;52.930;8.644;2024-03-29T09:21:56;9.60;99.90
7129;DHT22;3606;52.930;8.644;2024-03-29T09:24:21;9.60;99.90
7129;DHT22;3606;52.930;8.644;2024-03-29T09:26:49;9.60;99.90
7129;DHT22;3606;52.930;8.644;2024-03-29T09:29:14;9.70;99.90
7129;DHT22;3606;52.930;8.644;2024-03-29T09:31:42;9.90;99.90
7129;DHT22;3606;52.930;8.644;2024-03-29T09:34:07;10.20;99.90
7129;DHT22;3606;52.930;8.644;2024-03-29T09:36:43;10.40;99.90
7129;DHT22;3606;52.930;8.644;2024-03-29T09:39:09;10.50;99.90
7129;DHT22;3606;52.930;8.644;2024-03-29T09:41:35;10.70;1.00
7129;DHT22;3606;52.930;8.644;2024-03-29T09:44:03;10.70;99.90
7129;DHT22;3606;52.930;8.644;2024-03-29T09:46:33;10.50;99.90
7129;DHT22;3606;52.930;8.644;2024-03-29T09:48:59;10.60;99.90
7129;DHT22;3606;52.930;8.644;2024-03-29T09:51:26;10.80;99.90
7129;DHT22;3606;52.930;8.644;2024-03-29T09:53:52;11.10;99.90
7129;DHT22;3606;52.930;8.644;2024-03-29T09:56:19;11.30;99.90
7129;DHT22;3606;52.930;8.644;2024-03-29T09:58:46;11.30;99.90
7129;DHT22;3606;52.930;8.644;2024-03-29T10:01:11;11.40;1.00
7129;DHT22;3606;52.930;8.644;2024-03-29T10:03:42;11.70;99.90
7129;DHT22;3606;52.930;8.644;2024-03-29T10:06:10;12.00;1.00
7129;DHT22;3606;52.930;8.644;2024-03-29T10:08:40;12.20;41.30
7129;DHT22;3606;52.930;8.644;2024-03-29T10:11:05;12.60;99.90
7129;DHT22;3606;52.930;8.644;2024-03-29T10:13:31;12.80;99.90
7129;DHT22;3606;52.930;8.644;2024-03-29T10:15:57;12.80;99.90
7129;DHT22;3606;52.930;8.644;2024-03-29T10:18:26;12.70;99.90
7129;DHT22;3606;52.930;8.644;2024-03-29T10:21:06;12.90;99.90
7129;DHT22;3606;52.930;8.644;2024-03-29T10:23:35;13.20;99.90
7129;DHT22;3606;52.930;8.644;2024-03-29T10:26:01;13.20;1.00
7129;DHT22;3606;52.930;8.644;2024-03-29T10:28:34;13.30;1.00
7129;DHT22;3606;52.930;8.644;2024-03-29T10:31:02;13.60;99.90
7129;DHT22;3606;52.930;8.644;2024-03-29T10:33:31;13.60;99.90
7129;DHT22;3606;52.930;8.644;2024-03-29T10:35:59;13.50;99.90
7129;DHT22;3606;52.930;8.644;2024-03-29T10:38:26;13.20;99.90
7129;DHT22;3606;52.930;8.644;2024-03-29T10:40:52;13.10;99.90
7129;DHT22;3606;52.930;8.644;2024-03-29T10:43:19;13.00;99.90
7129;DHT22;3606;52.930;8.644;2024-03-29T10:45:46;12.60;99.90
7129;DHT22;3606;52.930;8.644;2024-03-29T10:48:15;12.30;99.90
7129;DHT22;3606;52.930;8.644;2024-03-29T10:50:41;12.30;99.90
7129;DHT22;3606;52.930;8.644;2024-03-29T10:53:09;12.50;99.90
7129;DHT22;3606;52.930;8.644;2024-03-29T10:55:36;12.70;99.90
7129;DHT22;3606;52.930;8.644;2024-03-29T10:58:04;12.80;99.90
7129;DHT22;3606;52.930;8.644;2024-03-29T11:00:45;12.90;99.90
7129;DHT22;3606;52.930;8.644;2024-03-29T11:03:19;13.40;99.90
7129;DHT22;3606;52.930;8.644;2024-03-29T11:05:50;13.90;99.90
7129;DHT22;3606;52.930;8.644;2024-03-29T11:08:23;14.10;99.90
7129;DHT22;3606;52.930;8.644;2024-03-29T11:10:51;14.10;99.90
7129;DHT22;3606;52.930;8.644;2024-03-29T11:16:13;13.90;99.90
7129;DHT22;3606;52.930;8.644;2024-03-29T11:18:41;14.00;99.90
7129;DHT22;3606;52.930;8.644;2024-03-29T11:21:07;14.10;99.90
7129;DHT22;3606;52.930;8.644;2024-03-29T11:23:35;14.50;99.90
7129;DHT22;3606;52.930;8.644;2024-03-29T11:26:01;14.40;99.90
7129;DHT22;3606;52.930;8.644;2024-03-29T11:28:29;13.90;99.90
7129;DHT22;3606;52.930;8.644;2024-03-29T11:31:07;14.10;99.90
7129;DHT22;3606;52.930;8.644;2024-03-29T11:33:33;14.20;99.90
7129;DHT22;3606;52.930;8.644;2024-03-29T11:36:22;14.30;99.90
7129;DHT22;3606;52.930;8.644;2024-03-29T11:38:53;14.40;99.90
7129;DHT22;3606;52.930;8.644;2024-03-29T11:41:23;14.70;99.90
7129;DHT22;3606;52.930;8.644;2024-03-29T11:43:53;15.40;99.90
7129;DHT22;3606;52.930;8.644;2024-03-29T11:46:20;16.10;99.90
7129;DHT22;3606;52.930;8.644;2024-03-29T11:48:46;16.40;99.90
7129;DHT22;3606;52.930;8.644;2024-03-29T11:51:16;16.00;99.90
7129;DHT22;3606;52.930;8.644;2024-03-29T11:53:43;15.80;99.90
7129;DHT22;3606;52.930;8.644;2024-03-29T11:56:09;16.10;99.90
7129;DHT22;3606;52.930;8.644;2024-03-29T11:58:37;16.20;99.90
7129;DHT22;3606;52.930;8.644;2024-03-29T12:01:04;16.30;99.90
7129;DHT22;3606;52.930;8.644;2024-03-29T12:03:31;15.90;99.90
7129;DHT22;3606;52.930;8.644;2024-03-29T12:05:58;15.50;99.90
7129;DHT22;3606;52.930;8.644;2024-03-29T12:08:34;15.00;99.90
7129;DHT22;3606;52.930;8.644;2024-03-29T12:11:02;14.80;99.90
7129;DHT22;3606;52.930;8.644;2024-03-29T12:13:30;15.10;99.90
7129;DHT22;3606;52.930;8.644;2024-03-29T12:15:56;15.30;99.90
7129;DHT22;3606;52.930;8.644;2024-03-29T12:18:24;15.40;99.90
7129;DHT22;3606;52.930;8.644;2024-03-29T12:20:51;15.30;99.90
7129;DHT22;3606;52.930;8.644;2024-03-29T12:23:19;15.10;99.90
7129;DHT22;3606;52.930;8.644;2024-03-29T12:25:45;14.90;99.90
7129;DHT22;3606;52.930;8.644;2024-03-29T12:28:12;15.10;99.90
7129;DHT22;3606;52.930;8.644;2024-03-29T12:30:40;15.20;99.90
7129;DHT22;3606;52.930;8.644;2024-03-29T12:33:14;14.90;99.90
7129;DHT22;3606;52.930;8.644;2024-03-29T12:35:43;14.70;99.90
7129;DHT22;3606;52.930;8.644;2024-03-29T12:38:12;14.50;99.90
7129;DHT22;3606;52.930;8.644;2024-03-29T12:40:38;14.30;99.90
7129;DHT22;3606;52.930;8.644;2024-03-29T12:43:06;14.20;99.90
7129;DHT22;3606;52.930;8.644;2024-03-29T12:45:34;14.20;99.90
7129;DHT22;3606;52.930;8.644;2024-03-29T12:48:00;14.20;99.90
7129;DHT22;3606;52.930;8.644;2024-03-29T12:50:31;14.00;99.90
7129;DHT22;3606;52.930;8.644;2024-03-29T12:53:02;14.00;99.90
7129;DHT22;3606;52.930;8.644;2024-03-29T12:55:29;13.90;99.90
7129;DHT22;3606;52.930;8.644;2024-03-29T12:58:01;13.80;99.90
7129;DHT22;3606;52.930;8.644;2024-03-29T13:00:29;13.70;99.90
7129;DHT22;3606;52.930;8.644;2024-03-29T13:02:55;13.70;99.90
7129;DHT22;3606;52.930;8.644;2024-03-29T13:05:20;13.70;99.90
7129;DHT22;3606;52.930;8.644;2024-03-29T13:07:46;13.70;99.90
7129;DHT22;3606;52.930;8.644;2024-03-29T13:10:12;13.70;99.90
7129;DHT22;3606;52.930;8.644;2024-03-29T13:12:46;13.70;99.90
7129;DHT22;3606;52.930;8.644;2024-03-29T13:15:25;14.90;99.90
7129;DHT22;3606;52.930;8.644;2024-03-29T13:17:53;16.10;99.90
7129;DHT22;3606;52.930;8.644;2024-03-29T13:20:19;16.60;99.90
7129;DHT22;3606;52.930;8.644;2024-03-29T13:22:46;17.10;99.90
7129;DHT22;3606;52.930;8.644;2024-03-29T13:25:17;17.50;99.90
7129;DHT22;3606;52.930;8.644;2024-03-29T13:27:46;17.90;99.90
7129;DHT22;3606;52.930;8.644;2024-03-29T13:30:12;17.70;99.90
7129;DHT22;3606;52.930;8.644;2024-03-29T13:32:39;17.00;99.90
7129;DHT22;3606;52.930;8.644;2024-03-29T13:35:06;16.30;99.90
7129;DHT22;3606;52.930;8.644;2024-03-29T13:37:35;16.00;99.90
7129;DHT22;3606;52.930;8.644;2024-03-29T13:40:00;16.00;99.90
7129;DHT22;3606;52.930;8.644;2024-03-29T13:42:26;16.10;99.90
7129;DHT22;3606;52.930;8.644;2024-03-29T13:44:54;16.40;99.90
7129;DHT22;3606;52.930;8.644;2024-03-29T13:47:20;16.20;99.90
7129;DHT22;3606;52.930;8.644;2024-03-29T13:49:46;16.00;99.90
7129;DHT22;3606;52.930;8.644;2024-03-29T13:52:12;15.80;99.90
7129;DHT22;3606;52.930;8.644;2024-03-29T13:54:43;16.60;99.90
7129;DHT22;3606;52.930;8.644;2024-03-29T13:57:09;17.00;99.90
7129;DHT22;3606;52.930;8.644;2024-03-29T13:59:35;17.40;99.90
7129;DHT22;3606;52.930;8.644;2024-03-29T14:02:01;17.00;99.90
7129;DHT22;3606;52.930;8.644;2024-03-29T14:04:27;18.20;99.90
7129;DHT22;3606;52.930;8.644;2024-03-29T14:06:52;19.80;99.90
7129;DHT22;3606;52.930;8.644;2024-03-29T14:09:18;20.00;99.90
7129;DHT22;3606;52.930;8.644;2024-03-29T14:11:44;19.80;99.90
7129;DHT22;3606;52.930;8.644;2024-03-29T14:14:13;19.40;99.90
7129;DHT22;3606;52.930;8.644;2024-03-29T14:16:39;19.00;99.90
7129;DHT22;3606;52.930;8.644;2024-03-29T14:19:04;18.90;99.90
7129;DHT22;3606;52.930;8.644;2024-03-29T14:21:30;18.60;99.90
7129;DHT22;3606;52.930;8.644;2024-03-29T14:23:57;18.50;99.90
7129;DHT22;3606;52.930;8.644;2024-03-29T14:26:23;17.90;99.90
7129;DHT22;3606;52.930;8.644;2024-03-29T14:28:48;17.30;99.90
7129;DHT22;3606;52.930;8.644;2024-03-29T14:31:15;17.20;99.90
7129;DHT22;3606;52.930;8.644;2024-03-29T14:33:41;17.80;99.90
7129;DHT22;3606;52.930;8.644;2024-03-29T14:36:06;17.70;99.90
7129;DHT22;3606;52.930;8.644;2024-03-29T14:38:32;17.20;99.90
7129;DHT22;3606;52.930;8.644;2024-03-29T14:40:58;16.40;99.90
7129;DHT22;3606;52.930;8.644;2024-03-29T14:43:23;16.20;99.90
7129;DHT22;3606;52.930;8.644;2024-03-29T14:45:49;16.00;99.90
7129;DHT22;3606;52.930;8.644;2024-03-29T14:48:17;15.90;99.90
7129;DHT22;3606;52.930;8.644;2024-03-29T14:50:43;16.00;99.90
7129;DHT22;3606;52.930;8.644;2024-03-29T14:53:09;16.00;99.90
7129;DHT22;3606;52.930;8.644;2024-03-29T14:55:35;16.00;99.90
7129;DHT22;3606;52.930;8.644;2024-03-29T14:58:07;16.10;99.90
7129;DHT22;3606;52.930;8.644;2024-03-29T15:00:33;16.30;99.90
7129;DHT22;3606;52.930;8.644;2024-03-29T15:02:59;16.20;99.90
7129;DHT22;3606;52.930;8.644;2024-03-29T15:05:24;15.90;99.90
7129;DHT22;3606;52.930;8.644;2024-03-29T15:07:52;15.80;99.90
7129;DHT22;3606;52.930;8.644;2024-03-29T15:10:18;15.80;99.90
7129;DHT22;3606;52.930;8.644;2024-03-29T15:12:45;15.50;99.90
7129;DHT22;3606;52.930;8.644;2024-03-29T15:15:13;15.30;99.90
7129;DHT22;3606;52.930;8.644;2024-03-29T15:17:39;15.50;99.90
7129;DHT22;3606;52.930;8.644;2024-03-29T15:20:05;15.60;99.90
7129;DHT22;3606;52.930;8.644;2024-03-29T15:22:37;15.60;99.90
7129;DHT22;3606;52.930;8.644;2024-03-29T15:25:06;15.40;99.90
7129;DHT22;3606;52.930;8.644;2024-03-29T15:27:32;15.20;99.90
7129;DHT22;3606;52.930;8.644;2024-03-29T15:30:16;15.20;99.90
7129;DHT22;3606;52.930;8.644;2024-03-29T15:32:42;15.20;99.90
7129;DHT22;3606;52.930;8.644;2024-03-29T15:35:08;15.30;99.90
7129;DHT22;3606;52.930;8.644;2024-03-29T15:37:35;15.40;99.90
7129;DHT22;3606;52.930;8.644;2024-03-29T15:40:01;15.50;99.90
7129;DHT22;3606;52.930;8.644;2024-03-29T15:42:26;15.50;99.90
7129;DHT22;3606;52.930;8.644;2024-03-29T15:44:52;15.50;99.90
7129;DHT22;3606;52.930;8.644;2024-03-29T15:47:18;15.40;99.90
7129;DHT22;3606;52.930;8.644;2024-03-29T15:49:43;15.20;99.90
7129;DHT22;3606;52.930;8.644;2024-03-29T15:52:09;15.00;99.90
7129;DHT22;3606;52.930;8.644;2024-03-29T15:54:35;15.00;99.90
7129;DHT22;3606;52.930;8.644;2024-03-29T15:57:01;15.00;99.90
7129;DHT22;3606;52.930;8.644;2024-03-29T15:59:27;14.90;99.90
7129;DHT22;3606;52.930;8.644;2024-03-29T16:01:52;14.90;99.90
7129;DHT22;3606;52.930;8.644;2024-03-29T16:04:18;14.90;99.90
7129;DHT22;3606;52.930;8.644;2024-03-29T16:06:44;14.70;99.90
7129;DHT22;3606;52.930;8.644;2024-03-29T16:09:13;14.70;99.90
7129;DHT22;3606;52.930;8.644;2024-03-29T16:11:39;14.70;99.90